createdAt,value
2019-05-29T00:01:59.839Z,86800.27
2019-05-29T00:04:26.722Z,86802.51
2019-05-29T00:06:53.444Z,86804.39
2019-05-29T00:09:20.163Z,86799.87
2019-05-29T00:11:46.987Z,86798.36
2019-05-29T00:14:24.664Z,86805.31
2019-05-29T00:16:42.221Z,86808.33
2019-05-29T00:19:10.327Z,86809.08
2019-05-29T00:21:37.124Z,86816.80
2019-05-29T00:24:03.852Z,86818.69
2019-05-29T00:26:30.743Z,86814.16
2019-05-29T00:28:57.482Z,86819.45
2019-05-29T00:31:24.190Z,86820.58
2019-05-29T00:33:51.080Z,86817.76
2019-05-29T00:36:17.790Z,86820.59
2019-05-29T00:38:44.500Z,86817.95
2019-05-29T00:41:11.369Z,86819.83
2019-05-29T00:43:38.133Z,86824.89
2019-05-29T00:46:04.862Z,86820.58
2019-05-29T00:48:31.747Z,86820.95
2019-05-29T00:50:58.466Z,86823.39
2019-05-29T00:53:25.195Z,86821.70
2019-05-29T00:55:52.082Z,86825.84
2019-05-29T00:58:19.834Z,86828.65
2019-05-29T01:00:46.768Z,86825.09
2019-05-29T01:03:13.792Z,86830.70
2019-05-29T01:05:40.505Z,86825.63
2019-05-29T01:08:07.238Z,86830.52
2019-05-29T01:10:34.140Z,86833.15
2019-05-29T01:13:00.868Z,86838.77
2019-05-29T01:15:27.614Z,86837.27
2019-05-29T01:17:54.519Z,86834.84
2019-05-29T01:20:22.030Z,86838.40
2019-05-29T01:22:48.882Z,86838.58
2019-05-29T01:25:16.550Z,86838.76
2019-05-29T01:27:43.387Z,86837.47
2019-05-29T01:30:10.129Z,86837.64
2019-05-29T01:32:37.014Z,86838.96
2019-05-29T01:35:07.196Z,86837.83
2019-05-29T01:37:33.920Z,86836.70
2019-05-29T01:40:00.819Z,86841.02
2019-05-29T01:42:27.777Z,86852.08
2019-05-29T01:45:07.247Z,86839.89
2019-05-29T01:47:23.651Z,86847.75
2019-05-29T01:49:50.948Z,86848.87
2019-05-29T01:52:17.665Z,86843.03
2019-05-29T01:54:44.450Z,86843.55
2019-05-29T01:57:11.267Z,86843.12
2019-05-29T01:59:38.007Z,86843.91
2019-05-29T02:02:04.897Z,86846.88
2019-05-29T02:04:31.638Z,86843.32
2019-05-29T02:06:58.362Z,86849.91
2019-05-29T02:09:25.233Z,86847.64
2019-05-29T02:11:51.969Z,86851.02
2019-05-29T02:14:18.714Z,86848.05
2019-05-29T02:16:45.581Z,86849.77
2019-05-29T02:19:12.307Z,86846.95
2019-05-29T02:21:39.319Z,86852.41
2019-05-29T02:24:06.088Z,86853.14
2019-05-29T02:26:32.835Z,86850.67
2019-05-29T02:28:59.537Z,86851.75
2019-05-29T02:31:28.701Z,86849.86
2019-05-29T02:33:54.984Z,86848.45
2019-05-29T02:36:22.312Z,86854.48
2019-05-29T02:38:49.307Z,86842.71
2019-05-29T02:41:16.039Z,86841.39
2019-05-29T02:43:42.752Z,86842.53
2019-05-29T02:46:09.691Z,86842.01
2019-05-29T02:48:36.429Z,86839.41
2019-05-29T02:51:03.234Z,86848.42
2019-05-29T02:53:30.827Z,86845.97
2019-05-29T02:55:57.787Z,86846.73
2019-05-29T02:58:25.837Z,86839.81
2019-05-29T03:00:54.831Z,86844.69
2019-05-29T03:03:26.350Z,86844.30
2019-05-29T03:05:54.394Z,86845.27
2019-05-29T03:08:22.248Z,86843.92
2019-05-29T03:10:50.119Z,86849.38
2019-05-29T03:13:16.952Z,86845.81
2019-05-29T03:15:43.822Z,86842.64
2019-05-29T03:18:10.553Z,86842.84
2019-05-29T03:20:37.277Z,86840.56
2019-05-29T03:23:04.189Z,86843.77
2019-05-29T03:25:32.462Z,86843.19
2019-05-29T03:27:59.332Z,86842.81
2019-05-29T03:30:27.912Z,86849.03
2019-05-29T03:32:54.752Z,86847.14
2019-05-29T03:35:21.509Z,86844.69
2019-05-29T03:37:48.396Z,86844.13
2019-05-29T03:40:15.148Z,86854.08
2019-05-29T03:42:41.873Z,86846.20
2019-05-29T03:45:08.736Z,86852.01
2019-05-29T03:47:37.061Z,86854.25
2019-05-29T03:50:06.370Z,86860.21
2019-05-29T03:52:34.673Z,86864.12
2019-05-29T03:55:02.382Z,86860.70
2019-05-29T03:57:29.748Z,86860.73
2019-05-29T03:59:57.805Z,86862.13
2019-05-29T04:02:24.540Z,86864.81
2019-05-29T04:04:51.297Z,86874.98
2019-05-29T04:07:18.141Z,86870.92
2019-05-29T04:09:44.890Z,86868.12
2019-05-29T04:12:11.614Z,86869.76
2019-05-29T04:14:38.510Z,86870.20
2019-05-29T04:17:06.325Z,86873.78
2019-05-29T04:19:34.925Z,86880.69
2019-05-29T04:22:09.728Z,86890.92
2019-05-29T04:24:38.778Z,86884.90
2019-05-29T04:27:10.533Z,86890.85
2019-05-29T04:29:38.438Z,86889.91
2019-05-29T04:32:05.358Z,86886.36
2019-05-29T04:34:33.809Z,86892.70
2019-05-29T04:37:00.791Z,86898.42
2019-05-29T04:39:28.402Z,86899.70
2019-05-29T04:41:55.328Z,86907.59
2019-05-29T04:44:22.200Z,86910.47
2019-05-29T04:46:48.927Z,86913.45
2019-05-29T04:49:19.997Z,86912.98
2019-05-29T04:51:44.397Z,86920.93
2019-05-29T04:54:11.152Z,86921.59
2019-05-29T04:56:39.028Z,86926.55
2019-05-29T04:59:06.084Z,86919.30
2019-05-29T05:01:33.054Z,86925.19
2019-05-29T05:03:59.848Z,86930.56
2019-05-29T05:06:26.633Z,86924.36
2019-05-29T05:08:53.366Z,86932.80
2019-05-29T05:11:20.122Z,86934.09
2019-05-29T05:13:47.091Z,86933.99
2019-05-29T05:16:13.821Z,86939.12
2019-05-29T05:18:40.533Z,86944.41
2019-05-29T05:21:07.415Z,86944.11
2019-05-29T05:23:34.156Z,86949.20
2019-05-29T05:26:00.879Z,86951.30
2019-05-29T05:28:27.788Z,86948.30
2019-05-29T05:30:54.513Z,86954.86
2019-05-29T05:33:21.236Z,86957.70
2019-05-29T05:35:48.147Z,86953.39
2019-05-29T05:38:14.881Z,86957.38
2019-05-29T05:40:43.146Z,86960.77
2019-05-29T05:43:23.152Z,86963.97
2019-05-29T05:45:39.229Z,86966.98
2019-05-29T05:48:06.086Z,86969.64
2019-05-29T05:50:33.357Z,86970.02
2019-05-29T05:53:00.062Z,86976.25
2019-05-29T05:55:26.809Z,86971.20
2019-05-29T05:57:53.718Z,86977.39
2019-05-29T06:00:31.997Z,86974.21
2019-05-29T06:02:58.923Z,86976.11
2019-05-29T06:05:25.620Z,86974.59
2019-05-29T06:07:52.378Z,86977.05
2019-05-29T06:10:19.284Z,86978.33
2019-05-29T06:12:45.990Z,86978.50
2019-05-29T06:15:12.943Z,86982.27
2019-05-29T06:17:40.746Z,86981.25
2019-05-29T06:20:08.159Z,86986.68
2019-05-29T06:22:34.961Z,86985.02
2019-05-29T06:25:01.819Z,86991.63
2019-05-29T06:27:28.535Z,86990.70
2019-05-29T06:29:55.263Z,86994.12
2019-05-29T06:32:22.143Z,86993.02
2019-05-29T06:34:48.906Z,86991.49
2019-05-29T06:37:15.607Z,86991.00
2019-05-29T06:39:43.799Z,87001.45
2019-05-29T06:42:10.612Z,86999.72
2019-05-29T06:44:39.402Z,87003.99
2019-05-29T06:47:05.956Z,87004.16
2019-05-29T06:49:33.834Z,87001.89
2019-05-29T06:52:00.763Z,87012.63
2019-05-29T06:54:27.544Z,87008.92
2019-05-29T06:56:54.284Z,87015.77
2019-05-29T06:59:20.999Z,87010.80
2019-05-29T07:01:47.875Z,87017.86
2019-05-29T07:04:14.595Z,87016.75
2019-05-29T07:06:41.330Z,87019.98
2019-05-29T07:09:08.924Z,87024.05
2019-05-29T07:11:37.023Z,87021.55
2019-05-29T07:14:04.004Z,87026.48
2019-05-29T07:16:43.759Z,87031.52
2019-05-29T07:21:27.976Z,87032.37
2019-05-29T07:23:54.856Z,87034.62
2019-05-29T07:26:21.597Z,87032.55
2019-05-29T07:29:06.447Z,87036.44
2019-05-29T07:31:16.948Z,87036.84
2019-05-29T07:33:43.669Z,87037.52
2019-05-29T07:36:10.404Z,87038.44
2019-05-29T07:38:37.695Z,87041.52
2019-05-29T07:41:04.551Z,87045.00
2019-05-29T07:43:31.251Z,87035.15
2019-05-29T07:45:58.147Z,87042.56
2019-05-29T07:48:24.878Z,87041.88
2019-05-29T07:51:04.448Z,87039.80
2019-05-29T07:53:20.419Z,87045.40
2019-05-29T07:55:47.154Z,87040.31
2019-05-29T07:58:13.900Z,87050.66
2019-05-29T08:01:02.672Z,87043.74
2019-05-29T08:03:09.515Z,87047.75
2019-05-29T08:05:36.259Z,87050.18
2019-05-29T08:08:03.143Z,87049.24
2019-05-29T08:10:29.971Z,87054.88
2019-05-29T08:12:56.703Z,87052.84
2019-05-29T08:15:23.691Z,87052.50
2019-05-29T08:17:50.424Z,87046.13
2019-05-29T08:20:17.236Z,87059.33
2019-05-29T08:22:44.445Z,87055.77
2019-05-29T08:25:13.178Z,87055.44
2019-05-29T08:27:40.569Z,87058.85
2019-05-29T08:30:09.940Z,87065.60
2019-05-29T08:32:36.695Z,87064.84
2019-05-29T08:35:06.027Z,87064.48
2019-05-29T08:37:32.834Z,87065.05
2019-05-29T08:39:59.563Z,87065.22
2019-05-29T08:42:26.286Z,87062.44
2019-05-29T08:44:53.066Z,87066.20
2019-05-29T08:47:19.792Z,87062.66
2019-05-29T08:49:50.609Z,87070.95
2019-05-29T08:52:15.280Z,87064.92
2019-05-29T08:54:42.087Z,87076.59
2019-05-29T08:57:08.870Z,87066.58
2019-05-29T08:59:35.747Z,87072.80
2019-05-29T09:02:02.488Z,87079.22
2019-05-29T09:04:29.245Z,87069.44
2019-05-29T09:06:56.153Z,87078.13
2019-05-29T09:09:22.888Z,87083.06
2019-05-29T09:11:50.145Z,87081.70
2019-05-29T09:14:17.407Z,87085.84
2019-05-29T09:16:44.208Z,87090.00
2019-05-29T09:19:12.102Z,87088.29
2019-05-29T09:21:38.978Z,87087.53
2019-05-29T09:24:05.727Z,87086.80
2019-05-29T09:26:32.454Z,87084.55
2019-05-29T09:28:59.353Z,87088.15
2019-05-29T09:31:26.105Z,87090.98
2019-05-29T09:33:52.824Z,87090.40
2019-05-29T09:36:20.701Z,87092.86
2019-05-29T09:38:47.694Z,87098.50
2019-05-29T09:41:15.640Z,87094.91
2019-05-29T09:43:57.708Z,87099.81
2019-05-29T09:46:11.978Z,87097.73
2019-05-29T09:48:49.193Z,87108.84
2019-05-29T09:51:20.582Z,87101.52
2019-05-29T09:53:35.993Z,87102.08
2019-05-29T09:56:03.066Z,87101.89
2019-05-29T09:58:30.133Z,87109.62
2019-05-29T10:01:15.898Z,87110.92
2019-05-29T10:03:25.503Z,87110.37
2019-05-29T10:05:54.070Z,87112.24
2019-05-29T10:08:20.903Z,87113.35
2019-05-29T10:10:47.654Z,87113.95
2019-05-29T10:13:14.433Z,87118.83
2019-05-29T10:15:41.159Z,87115.04
2019-05-29T10:18:18.165Z,87117.10
2019-05-29T10:20:36.672Z,87118.96
2019-05-29T10:23:03.600Z,87118.00
2019-05-29T10:25:30.341Z,87121.02
2019-05-29T10:27:57.206Z,87124.94
2019-05-29T10:30:24.961Z,87120.08
2019-05-29T10:32:52.887Z,87120.23
2019-05-29T10:35:19.996Z,87128.50
2019-05-29T10:37:47.167Z,87130.38
2019-05-29T10:40:14.514Z,87127.31
2019-05-29T10:42:42.916Z,87135.41
2019-05-29T10:45:11.857Z,87133.67
2019-05-29T10:47:38.648Z,87133.64
2019-05-29T10:50:09.135Z,87136.28
2019-05-29T10:52:35.862Z,87139.27
2019-05-29T10:55:05.251Z,87137.95
2019-05-29T10:57:32.141Z,87130.19
2019-05-29T10:59:58.869Z,87137.95
2019-05-29T11:02:25.603Z,87140.36
2019-05-29T11:04:55.527Z,87145.02
2019-05-29T11:07:20.989Z,87143.09
2019-05-29T11:09:48.587Z,87136.46
2019-05-29T11:12:15.615Z,87140.09
2019-05-29T11:14:42.348Z,87144.09
2019-05-29T11:17:09.089Z,87145.47
2019-05-29T11:19:35.993Z,87139.27
2019-05-29T11:22:24.694Z,87148.28
2019-05-29T11:24:31.409Z,87139.94
2019-05-29T11:26:58.849Z,87153.11
2019-05-29T11:29:25.722Z,87144.19
2019-05-29T11:31:53.422Z,87156.84
2019-05-29T11:34:20.594Z,87149.94
2019-05-29T11:36:47.328Z,87150.70
2019-05-29T11:39:14.038Z,87153.30
2019-05-29T11:41:40.922Z,87156.34
2019-05-29T11:44:07.641Z,87152.55
2019-05-29T11:46:34.393Z,87156.88
2019-05-29T11:49:01.254Z,87154.03
2019-05-29T11:51:28.597Z,87155.39
2019-05-29T11:53:55.470Z,87159.75
2019-05-29T11:56:23.234Z,87166.91
2019-05-29T11:58:50.773Z,87167.08
2019-05-29T12:01:17.685Z,87167.08
2019-05-29T12:04:09.275Z,87169.72
2019-05-29T12:06:13.111Z,87168.97
2019-05-29T12:08:39.851Z,87168.59
2019-05-29T12:11:07.271Z,87172.36
2019-05-29T12:13:34.078Z,87173.52
2019-05-29T12:16:01.852Z,87176.33
2019-05-29T12:18:28.906Z,87175.94
2019-05-29T12:20:56.254Z,87182.14
2019-05-29T12:23:26.861Z,87178.38
2019-05-29T12:26:10.202Z,87168.34
2019-05-29T12:28:20.352Z,87172.70
2019-05-29T12:30:47.084Z,87175.34
2019-05-29T12:33:13.974Z,87173.26
2019-05-29T12:35:40.725Z,87176.66
2019-05-29T12:38:07.437Z,87178.55
2019-05-29T12:40:34.925Z,87179.14
2019-05-29T12:43:01.957Z,87179.67
2019-05-29T12:45:28.712Z,87179.14
2019-05-29T12:47:56.497Z,87180.59
2019-05-29T12:50:25.494Z,87180.23
2019-05-29T12:52:53.487Z,87172.83
2019-05-29T12:55:21.047Z,87176.59
2019-05-29T12:57:47.821Z,87176.72
2019-05-29T13:00:17.552Z,87177.24
2019-05-29T13:02:44.452Z,87173.67
2019-05-29T13:05:19.717Z,87172.08
2019-05-29T13:07:41.841Z,87179.00
2019-05-29T13:10:09.992Z,87176.55
2019-05-29T13:13:02.449Z,87176.34
2019-05-29T13:15:25.256Z,87178.02
2019-05-29T13:17:55.580Z,87176.48
2019-05-29T13:20:22.264Z,87170.59
2019-05-29T13:22:49.415Z,87176.80
2019-05-29T13:25:16.853Z,87177.31
2019-05-29T13:27:43.606Z,87178.53
2019-05-29T13:30:12.492Z,87175.47
2019-05-29T13:32:39.207Z,87183.06
2019-05-29T13:35:06.539Z,87175.53
2019-05-29T13:37:33.427Z,87178.52
2019-05-29T13:40:00.161Z,87178.27
2019-05-29T13:42:26.870Z,87179.39
2019-05-29T13:44:54.061Z,87182.73
2019-05-29T13:47:20.820Z,87179.83
2019-05-29T13:49:47.582Z,87176.78
2019-05-29T13:52:14.484Z,87181.23
2019-05-29T13:54:41.250Z,87180.44
2019-05-29T13:57:08.776Z,87178.03
2019-05-29T13:59:35.824Z,87181.45
2019-05-29T14:02:06.729Z,87176.30
2019-05-29T14:04:33.442Z,87176.70
2019-05-29T14:07:00.407Z,87183.91
2019-05-29T14:09:29.345Z,87183.27
2019-05-29T14:11:57.032Z,87182.66
2019-05-29T14:14:25.233Z,87182.16
2019-05-29T14:16:51.939Z,87180.77
2019-05-29T14:19:18.659Z,87178.31
2019-05-29T14:21:45.659Z,87179.78
2019-05-29T14:24:26.306Z,87188.23
2019-05-29T14:26:41.884Z,87184.84
2019-05-29T14:29:10.049Z,87185.30
2019-05-29T14:31:36.997Z,87184.12
2019-05-29T14:34:05.052Z,87184.70
2019-05-29T14:36:32.045Z,87186.72
2019-05-29T14:38:58.796Z,87189.36
2019-05-29T14:41:25.531Z,87193.08
2019-05-29T14:43:52.435Z,87184.20
2019-05-29T14:46:19.170Z,87182.45
2019-05-29T14:48:47.028Z,87183.38
2019-05-29T14:51:14.024Z,87179.55
2019-05-29T14:53:40.775Z,87177.84
2019-05-29T14:56:08.748Z,87180.25
2019-05-29T14:58:35.913Z,87179.06
2019-05-29T15:01:03.079Z,87177.31
2019-05-29T15:03:29.905Z,87180.23
2019-05-29T15:05:56.807Z,87183.50
2019-05-29T15:08:23.542Z,87186.78
2019-05-29T15:10:50.280Z,87189.52
2019-05-29T15:13:17.156Z,87194.52
2019-05-29T15:15:44.264Z,87184.73
2019-05-29T15:18:15.164Z,87189.92
2019-05-29T15:20:39.760Z,87187.13
2019-05-29T15:23:07.547Z,87185.02
2019-05-29T15:25:34.349Z,87188.50
2019-05-29T15:28:01.240Z,87186.96
2019-05-29T15:30:27.973Z,87189.17
2019-05-29T15:32:54.823Z,87192.97
2019-05-29T15:35:24.336Z,87192.55
2019-05-29T15:37:51.083Z,87192.17
2019-05-29T15:40:18.009Z,87185.00
2019-05-29T15:42:44.903Z,87193.94
2019-05-29T15:45:20.935Z,87187.75
2019-05-29T15:47:49.724Z,87189.27
2019-05-29T15:50:18.013Z,87189.08
2019-05-29T15:52:44.902Z,87191.51
2019-05-29T15:55:32.140Z,87192.20
2019-05-29T15:57:43.004Z,87189.88
2019-05-29T16:00:13.711Z,87193.58
2019-05-29T16:02:42.069Z,87185.36
2019-05-29T16:05:12.910Z,87186.97
2019-05-29T16:07:52.483Z,87192.25
2019-05-29T16:10:21.154Z,87195.44
2019-05-29T16:12:47.991Z,87198.00
2019-05-29T16:15:17.241Z,87200.24
2019-05-29T16:17:44.214Z,87200.34
2019-05-29T16:20:12.652Z,87201.38
2019-05-29T16:22:39.528Z,87199.86
2019-05-29T16:25:07.133Z,87204.46
2019-05-29T16:27:33.863Z,87214.76
2019-05-29T16:30:00.749Z,87217.25
2019-05-29T16:32:27.482Z,87216.90
2019-05-29T16:34:54.245Z,87220.14
2019-05-29T16:37:21.912Z,87223.61
2019-05-29T16:39:48.996Z,87227.59
2019-05-29T16:42:15.903Z,87226.64
2019-05-29T16:44:42.846Z,87228.95
2019-05-29T16:47:09.584Z,87229.48
2019-05-29T16:49:36.280Z,87230.08
2019-05-29T16:52:03.831Z,87231.45
2019-05-29T16:54:30.578Z,87235.98
2019-05-29T16:57:04.760Z,87237.52
2019-05-29T16:59:29.722Z,87240.73
2019-05-29T17:01:57.116Z,87241.16
2019-05-29T17:04:24.013Z,87243.05
2019-05-29T17:06:51.063Z,87248.57
2019-05-29T17:09:18.279Z,87258.45
2019-05-29T17:11:45.221Z,87251.70
2019-05-29T17:14:38.209Z,87251.09
2019-05-29T17:17:39.398Z,87261.55
2019-05-29T17:20:09.418Z,87263.33
2019-05-29T17:22:36.358Z,87264.42
2019-05-29T17:25:04.881Z,87268.19
2019-05-29T17:27:31.778Z,87264.25
2019-05-29T17:29:58.516Z,87270.08
2019-05-29T17:32:25.395Z,87275.77
2019-05-29T17:34:52.216Z,87276.48
2019-05-29T17:37:19.108Z,87282.19
2019-05-29T17:39:45.893Z,87280.50
2019-05-29T17:42:12.748Z,87280.31
2019-05-29T17:44:44.811Z,87286.98
2019-05-29T17:47:12.065Z,87285.30
2019-05-29T17:49:38.812Z,87296.14
2019-05-29T17:52:06.264Z,87299.20
2019-05-29T17:54:33.196Z,87296.59
2019-05-29T17:57:01.638Z,87298.52
2019-05-29T17:59:28.369Z,87305.75
2019-05-29T18:01:55.126Z,87315.41
2019-05-29T18:04:22.672Z,87317.13
2019-05-29T18:06:49.509Z,87316.57
2019-05-29T18:09:17.184Z,87319.05
2019-05-29T18:11:47.406Z,87324.02
2019-05-29T18:14:12.974Z,87327.99
2019-05-29T18:16:39.730Z,87325.02
2019-05-29T18:19:06.573Z,87320.52
2019-05-29T18:21:33.314Z,87333.58
2019-05-29T18:24:00.053Z,87328.82
2019-05-29T18:26:42.642Z,87339.23
2019-05-29T18:28:55.464Z,87337.77
2019-05-29T18:31:22.534Z,87342.13
2019-05-29T18:33:49.516Z,87343.47
2019-05-29T18:36:16.251Z,87345.91
2019-05-29T18:38:42.979Z,87345.18
2019-05-29T18:41:09.876Z,87344.81
2019-05-29T18:43:36.638Z,87350.72
2019-05-29T18:46:03.559Z,87363.77
2019-05-29T18:48:32.401Z,87357.73
2019-05-29T18:50:59.081Z,87361.89
2019-05-29T18:53:26.991Z,87369.64
2019-05-29T18:55:53.993Z,87369.07
2019-05-29T18:58:22.259Z,87372.30
2019-05-29T19:00:48.989Z,87377.97
2019-05-29T19:03:15.958Z,87378.53
2019-05-29T19:05:42.686Z,87384.74
2019-05-29T19:08:09.400Z,87385.50
2019-05-29T19:10:36.282Z,87388.34
2019-05-29T19:13:03.021Z,87390.78
2019-05-29T19:15:30.125Z,87399.27
2019-05-29T19:17:57.059Z,87406.98
2019-05-29T19:20:24.225Z,87409.64
2019-05-29T19:22:51.122Z,87416.61
2019-05-29T19:25:18.193Z,87420.75
2019-05-29T19:27:44.929Z,87419.77
2019-05-29T19:30:12.164Z,87420.71
2019-05-29T19:32:39.041Z,87424.86
2019-05-29T19:35:07.725Z,87425.95
2019-05-29T19:37:34.446Z,87437.42
2019-05-29T19:40:01.346Z,87443.82
2019-05-29T19:42:28.368Z,87442.50
2019-05-29T19:44:55.099Z,87445.88
2019-05-29T19:47:22.067Z,87453.41
2019-05-29T19:49:48.801Z,87454.34
2019-05-29T19:52:15.543Z,87459.03
2019-05-29T19:54:42.428Z,87469.77
2019-05-29T19:57:09.161Z,87472.39
2019-05-29T19:59:36.312Z,87476.70
2019-05-29T20:02:03.433Z,87480.63
2019-05-29T20:04:43.584Z,87474.79
2019-05-29T20:07:10.477Z,87478.16
2019-05-29T20:09:37.623Z,87487.38
2019-05-29T20:12:04.455Z,87488.87
2019-05-29T20:14:31.760Z,87493.16
2019-05-29T20:16:58.563Z,87500.48
2019-05-29T20:19:25.303Z,87496.91
2019-05-29T20:21:52.057Z,87489.76
2019-05-29T20:24:18.920Z,87496.14
2019-05-29T20:26:45.661Z,87509.87
2019-05-29T20:29:12.543Z,87505.66
2019-05-29T20:31:39.242Z,87509.39
2019-05-29T20:34:05.960Z,87516.73
2019-05-29T20:36:34.775Z,87516.70
2019-05-29T20:39:01.483Z,87522.72
2019-05-29T20:41:28.413Z,87522.88
2019-05-29T20:43:55.444Z,87522.50
2019-05-29T20:46:22.471Z,87526.45
2019-05-29T20:48:49.207Z,87528.15
2019-05-29T20:51:16.111Z,87531.13
2019-05-29T20:53:42.832Z,87534.30
2019-05-29T20:56:09.568Z,87535.23
2019-05-29T20:58:36.444Z,87535.95
2019-05-29T21:01:03.626Z,87538.80
2019-05-29T21:03:30.409Z,87541.05
2019-05-29T21:05:57.327Z,87545.00
2019-05-29T21:08:24.045Z,87549.88
2019-05-29T21:10:50.782Z,87550.41
2019-05-29T21:13:17.669Z,87547.78
2019-05-29T21:15:44.432Z,87549.83
2019-05-29T21:18:11.164Z,87546.58
2019-05-29T21:20:38.383Z,87551.08
2019-05-29T21:23:05.176Z,87549.15
2019-05-29T21:25:31.929Z,87548.97
2019-05-29T21:27:58.802Z,87551.00
2019-05-29T21:30:25.643Z,87545.52
2019-05-29T21:32:52.564Z,87549.08
2019-05-29T21:35:19.438Z,87559.05
2019-05-29T21:37:46.674Z,87548.98
2019-05-29T21:40:14.000Z,87554.46
2019-05-29T21:42:40.898Z,87553.47
2019-05-29T21:45:07.740Z,87550.21
2019-05-29T21:47:34.455Z,87557.34
2019-05-29T21:50:01.259Z,87550.42
2019-05-29T21:52:27.993Z,87554.39
2019-05-29T21:54:54.726Z,87561.53
2019-05-29T21:57:21.518Z,87564.91
2019-05-29T21:59:48.260Z,87560.33
2019-05-29T22:02:14.993Z,87558.59
2019-05-29T22:04:42.286Z,87567.56
2019-05-29T22:07:09.266Z,87565.12
2019-05-29T22:09:35.988Z,87567.33
2019-05-29T22:12:03.170Z,87569.02
2019-05-29T22:14:29.904Z,87569.78
2019-05-29T22:16:57.138Z,87566.55
2019-05-29T22:19:24.326Z,87567.23
2019-05-29T22:21:51.055Z,87576.59
2019-05-29T22:24:17.770Z,87575.13
2019-05-29T22:26:44.628Z,87575.09
2019-05-29T22:29:17.825Z,87577.88
2019-05-29T22:31:39.890Z,87576.73
2019-05-29T22:34:06.656Z,87578.41
2019-05-29T22:36:33.388Z,87582.52
2019-05-29T22:39:00.116Z,87579.48
2019-05-29T22:41:27.165Z,87575.84
2019-05-29T22:43:53.928Z,87581.81
2019-05-29T22:46:20.659Z,87582.52
2019-05-29T22:48:47.524Z,87584.42
2019-05-29T22:51:14.274Z,87588.77
2019-05-29T22:53:41.039Z,87589.44
2019-05-29T22:56:07.856Z,87589.68
2019-05-29T22:58:34.570Z,87590.05
2019-05-29T23:01:02.252Z,87596.84
2019-05-29T23:03:29.239Z,87589.44
2019-05-29T23:05:56.157Z,87590.88
2019-05-29T23:08:22.962Z,87586.31
2019-05-29T23:10:49.742Z,87584.20
2019-05-29T23:13:16.476Z,87595.02
2019-05-29T23:15:43.222Z,87586.70
2019-05-29T23:18:10.090Z,87588.16
2019-05-29T23:20:36.854Z,87593.78
2019-05-29T23:23:03.602Z,87583.97
2019-05-29T23:25:30.485Z,87586.23
2019-05-29T23:27:57.202Z,87593.72
2019-05-29T23:30:23.935Z,87584.64
2019-05-29T23:32:50.830Z,87591.50
2019-05-29T23:35:17.532Z,87582.45
2019-05-29T23:37:44.257Z,87584.68
2019-05-29T23:40:12.710Z,87586.55
2019-05-29T23:42:39.450Z,87586.51
2019-05-29T23:45:07.193Z,87586.44
2019-05-29T23:47:34.075Z,87588.81
2019-05-29T23:50:02.845Z,87594.94
2019-05-29T23:52:29.663Z,87596.00
2019-05-29T23:54:57.886Z,87597.09
2019-05-29T23:57:24.760Z,87597.75
